createdAt,value
2023-02-06T00:00:20.796Z,2.06
2023-02-06T00:01:20.790Z,2.06
2023-02-06T00:02:20.756Z,2.02
2023-02-06T00:03:21.013Z,2.02
2023-02-06T00:04:20.802Z,2.01
2023-02-06T00:05:21.114Z,1.99
2023-02-06T00:06:20.768Z,2.01
2023-02-06T00:07:20.713Z,2.01
2023-02-06T00:08:20.694Z,2.01
2023-02-06T00:09:20.674Z,1.99
2023-02-06T00:10:20.775Z,1.99
2023-02-06T00:11:20.791Z,1.98
2023-02-06T00:12:20.990Z,1.98
2023-02-06T00:13:20.625Z,1.97
2023-02-06T00:14:20.660Z,1.97
2023-02-06T00:15:20.667Z,1.91
2023-02-06T00:16:20.763Z,1.91
2023-02-06T00:17:20.622Z,1.91
2023-02-06T00:18:20.597Z,1.90
2023-02-06T00:19:20.953Z,1.85
2023-02-06T00:20:20.582Z,1.85
2023-02-06T00:21:20.585Z,1.82
2023-02-06T00:22:20.623Z,1.78
2023-02-06T00:23:20.548Z,1.76
2023-02-06T00:24:20.547Z,1.76
2023-02-06T00:25:20.546Z,1.73
2023-02-06T00:26:20.863Z,1.71
2023-02-06T00:27:20.579Z,1.69
2023-02-06T00:28:20.518Z,1.64
2023-02-06T00:29:20.466Z,1.61
2023-02-06T00:30:20.480Z,1.60
2023-02-06T00:31:20.991Z,1.60
2023-02-06T00:32:20.493Z,1.57
2023-02-06T00:33:21.280Z,1.57
2023-02-06T00:34:20.510Z,1.58
2023-02-06T00:35:20.404Z,1.55
2023-02-06T00:36:20.365Z,1.57
2023-02-06T00:37:20.370Z,1.57
2023-02-06T00:38:20.444Z,1.55
2023-02-06T00:39:20.408Z,1.52
2023-02-06T00:40:20.796Z,1.51
2023-02-06T00:41:20.372Z,1.47
2023-02-06T00:42:20.365Z,1.47
2023-02-06T00:43:20.334Z,1.47
2023-02-06T00:44:20.319Z,1.47
2023-02-06T00:45:20.352Z,1.46
2023-02-06T00:46:20.468Z,1.43
2023-02-06T00:47:20.643Z,1.43
2023-02-06T00:48:20.222Z,1.44
2023-02-06T00:49:20.155Z,1.44
2023-02-06T00:50:20.125Z,1.42
2023-02-06T00:51:20.127Z,1.43
2023-02-06T00:52:20.186Z,1.43
2023-02-06T00:53:20.096Z,1.44
2023-02-06T00:54:20.374Z,1.42
2023-02-06T00:55:20.088Z,1.39
2023-02-06T00:56:20.096Z,1.39
2023-02-06T00:57:20.073Z,1.36
2023-02-06T00:58:20.174Z,1.37
2023-02-06T00:59:20.033Z,1.33
2023-02-06T01:00:20.046Z,1.34
2023-02-06T01:01:20.401Z,1.34
2023-02-06T01:02:20.030Z,1.36
2023-02-06T01:03:20.003Z,1.34
2023-02-06T01:04:20.059Z,1.34
2023-02-06T01:05:19.961Z,1.34
2023-02-06T01:06:20.013Z,1.39
2023-02-06T01:07:19.973Z,1.42
2023-02-06T01:08:20.265Z,1.43
2023-02-06T01:09:19.928Z,1.43
2023-02-06T01:10:19.994Z,1.46
2023-02-06T01:11:19.906Z,1.46
2023-02-06T01:12:19.959Z,1.44
2023-02-06T01:13:19.895Z,1.46
2023-02-06T01:14:19.910Z,1.44
2023-02-06T01:15:20.166Z,1.43
2023-02-06T01:16:20.003Z,1.44
2023-02-06T01:17:19.828Z,1.44
2023-02-06T01:18:19.864Z,1.42
2023-02-06T01:19:19.802Z,1.42
2023-02-06T01:20:19.797Z,1.39
2023-02-06T01:21:19.802Z,1.37
2023-02-06T01:22:20.181Z,1.37
2023-02-06T01:23:19.784Z,1.36
2023-02-06T01:24:19.799Z,1.36
2023-02-06T01:25:19.803Z,1.34
2023-02-06T01:26:19.779Z,1.36
2023-02-06T01:27:19.747Z,1.34
2023-02-06T01:28:19.832Z,1.34
2023-02-06T01:29:20.028Z,1.34
2023-02-06T01:30:19.800Z,1.33
2023-02-06T01:31:19.784Z,1.34
2023-02-06T01:32:19.679Z,1.36
2023-02-06T01:33:19.698Z,1.36
2023-02-06T01:34:19.727Z,1.39
2023-02-06T01:35:19.661Z,1.39
2023-02-06T01:36:19.933Z,1.37
2023-02-06T01:37:19.644Z,1.34
2023-02-06T01:38:19.647Z,1.34
2023-02-06T01:39:19.595Z,1.33
2023-02-06T01:40:19.628Z,1.32
2023-02-06T01:41:19.582Z,1.29
2023-02-06T01:42:19.582Z,1.28
2023-02-06T01:43:19.859Z,1.26
2023-02-06T01:44:19.559Z,1.28
2023-02-06T01:45:19.563Z,1.25
2023-02-06T01:46:19.604Z,1.22
2023-02-06T01:47:19.562Z,1.21
2023-02-06T01:48:19.543Z,1.18
2023-02-06T01:49:19.507Z,1.19
2023-02-06T01:50:19.782Z,1.21
2023-02-06T01:51:19.502Z,1.22
2023-02-06T01:52:19.525Z,1.19
2023-02-06T01:53:19.454Z,1.21
2023-02-06T01:54:19.469Z,1.24
2023-02-06T01:55:19.489Z,1.22
2023-02-06T01:56:19.518Z,1.22
2023-02-06T01:57:19.749Z,1.26
2023-02-06T01:58:19.459Z,1.28
2023-02-06T01:59:19.422Z,1.28
2023-02-06T02:00:19.413Z,1.32
2023-02-06T02:01:19.376Z,1.32
2023-02-06T02:02:19.433Z,1.34
2023-02-06T02:03:19.353Z,1.34
2023-02-06T02:04:19.669Z,1.32
2023-02-06T02:05:19.352Z,1.34
2023-02-06T02:06:19.363Z,1.33
2023-02-06T02:07:19.308Z,1.28
2023-02-06T02:08:19.328Z,1.29
2023-02-06T02:09:19.281Z,1.26
2023-02-06T02:10:19.359Z,1.25
2023-02-06T02:11:19.576Z,1.24
2023-02-06T02:12:19.261Z,1.22
2023-02-06T02:13:19.348Z,1.19
2023-02-06T02:14:19.300Z,1.19
2023-02-06T02:15:19.220Z,1.18
2023-02-06T02:16:19.338Z,1.21
2023-02-06T02:17:19.226Z,1.16
2023-02-06T02:18:19.552Z,1.18
2023-02-06T02:19:19.184Z,1.21
2023-02-06T02:20:19.191Z,1.21
2023-02-06T02:21:19.176Z,1.25
2023-02-06T02:22:19.217Z,1.25
2023-02-06T02:23:19.160Z,1.24
2023-02-06T02:24:19.207Z,1.21
2023-02-06T02:25:19.487Z,1.19
2023-02-06T02:26:19.124Z,1.21
2023-02-06T02:27:19.140Z,1.21
2023-02-06T02:28:19.280Z,1.21
2023-02-06T02:29:19.099Z,1.19
2023-02-06T02:30:19.129Z,1.19
2023-02-06T02:31:19.124Z,1.19
2023-02-06T02:32:19.376Z,1.22
2023-02-06T02:33:19.097Z,1.19
2023-02-06T02:34:19.098Z,1.19
2023-02-06T02:35:19.071Z,1.19
2023-02-06T02:36:19.083Z,1.16
2023-02-06T02:37:19.039Z,1.18
2023-02-06T02:38:19.025Z,1.16
2023-02-06T02:39:19.332Z,1.16
2023-02-06T02:40:19.033Z,1.12
2023-02-06T02:41:19.001Z,1.12
2023-02-06T02:42:19.028Z,1.08
2023-02-06T02:43:18.981Z,1.08
2023-02-06T02:44:19.035Z,1.08
2023-02-06T02:45:18.925Z,1.08
2023-02-06T02:46:19.266Z,1.10
2023-02-06T02:47:18.952Z,1.10
2023-02-06T02:48:18.899Z,1.10
2023-02-06T02:49:18.935Z,1.10
2023-02-06T02:50:18.910Z,1.08
2023-02-06T02:51:18.866Z,1.06
2023-02-06T02:52:19.264Z,1.08
2023-02-06T02:53:19.253Z,1.07
2023-02-06T02:54:19.049Z,1.04
2023-02-06T02:55:18.893Z,1.03
2023-02-06T02:56:18.847Z,1.01
2023-02-06T02:57:18.845Z,1.01
2023-02-06T02:58:18.851Z,1.03
2023-02-06T02:59:18.791Z,1.04
2023-02-06T03:00:18.782Z,1.06
2023-02-06T03:01:18.768Z,1.06
2023-02-06T03:02:18.801Z,1.08
2023-02-06T03:03:18.758Z,1.08
2023-02-06T03:04:18.780Z,1.12
2023-02-06T03:05:19.054Z,1.10
2023-02-06T03:06:18.705Z,1.10
2023-02-06T03:07:18.710Z,1.10
2023-02-06T03:08:18.736Z,1.08
2023-02-06T03:09:18.736Z,1.06
2023-02-06T03:10:18.739Z,1.06
2023-02-06T03:11:18.682Z,1.03
2023-02-06T03:12:18.665Z,1.00
2023-02-06T03:13:18.624Z,0.98
2023-02-06T03:14:18.634Z,0.98
2023-02-06T03:15:18.620Z,0.97
2023-02-06T03:16:18.714Z,0.97
2023-02-06T03:17:19.933Z,0.97
2023-02-06T03:18:18.581Z,0.96
2023-02-06T03:19:18.558Z,1.00
2023-02-06T03:20:18.547Z,0.97
2023-02-06T03:21:18.594Z,0.97
2023-02-06T03:22:18.612Z,0.94
2023-02-06T03:23:18.522Z,0.92
2023-02-06T03:24:18.832Z,0.90
2023-02-06T03:25:18.587Z,0.89
2023-02-06T03:26:18.490Z,0.85
2023-02-06T03:27:18.534Z,0.85
2023-02-06T03:28:18.573Z,0.82
2023-02-06T03:29:18.516Z,0.83
2023-02-06T03:30:18.476Z,0.80
2023-02-06T03:31:18.820Z,0.78
2023-02-06T03:32:18.514Z,0.78
2023-02-06T03:33:18.411Z,0.80
2023-02-06T03:34:18.492Z,0.86
2023-02-06T03:35:18.422Z,0.86
2023-02-06T03:36:18.460Z,0.85
2023-02-06T03:37:18.403Z,0.86
2023-02-06T03:38:18.653Z,0.83
2023-02-06T03:39:18.411Z,0.82
2023-02-06T03:40:18.447Z,0.78
2023-02-06T03:41:18.373Z,0.72
2023-02-06T03:42:18.333Z,0.71
2023-02-06T03:43:18.343Z,0.68
2023-02-06T03:44:18.311Z,0.67
2023-02-06T03:45:18.635Z,0.65
2023-02-06T03:46:18.377Z,0.60
2023-02-06T03:47:18.344Z,0.61
2023-02-06T03:48:18.274Z,0.60
2023-02-06T03:49:18.330Z,0.60
2023-02-06T03:50:18.250Z,0.58
2023-02-06T03:51:18.260Z,0.53
2023-02-06T03:52:18.565Z,0.53
2023-02-06T03:53:18.222Z,0.53
2023-02-06T03:54:18.250Z,0.52
2023-02-06T03:55:18.203Z,0.51
2023-02-06T03:56:18.229Z,0.51
2023-02-06T03:57:18.226Z,0.52
2023-02-06T03:58:18.746Z,0.52
2023-02-06T03:59:19.495Z,0.53
2023-02-06T04:00:18.141Z,0.57
2023-02-06T04:01:18.235Z,0.58
2023-02-06T04:02:18.155Z,0.60
2023-02-06T04:03:18.125Z,0.62
2023-02-06T04:04:18.207Z,0.64
2023-02-06T04:05:18.143Z,0.64
2023-02-06T04:06:18.428Z,0.61
2023-02-06T04:07:18.117Z,0.60
2023-02-06T04:08:18.075Z,0.57
2023-02-06T04:09:18.067Z,0.52
2023-02-06T04:10:18.263Z,0.51
2023-02-06T04:11:18.067Z,0.48
2023-02-06T04:12:18.033Z,0.46
2023-02-06T04:13:18.349Z,0.41
2023-02-06T04:14:18.002Z,0.39
2023-02-06T04:15:18.086Z,0.39
2023-02-06T04:16:18.161Z,0.34
2023-02-06T04:17:36.138Z,0.34
2023-02-06T04:18:18.050Z,0.31
2023-02-06T04:19:17.990Z,0.31
2023-02-06T04:20:18.246Z,0.31
2023-02-06T04:21:17.959Z,0.31
2023-02-06T04:22:18.038Z,0.30
2023-02-06T04:23:17.935Z,0.33
2023-02-06T04:24:18.053Z,0.31
2023-02-06T04:25:17.923Z,0.30
2023-02-06T04:26:17.873Z,0.30
2023-02-06T04:27:18.172Z,0.27
2023-02-06T04:28:17.955Z,0.24
2023-02-06T04:29:17.880Z,0.24
2023-02-06T04:30:17.921Z,0.23
2023-02-06T04:31:17.948Z,0.24
2023-02-06T04:32:17.867Z,0.25
2023-02-06T04:33:17.799Z,0.28
2023-02-06T04:34:18.187Z,0.30
2023-02-06T04:35:17.851Z,0.27
2023-02-06T04:36:17.826Z,0.28
2023-02-06T04:37:17.807Z,0.27
2023-02-06T04:38:17.788Z,0.30
2023-02-06T04:39:17.779Z,0.28
2023-02-06T04:40:17.784Z,0.27
2023-02-06T04:41:18.032Z,0.30
2023-02-06T04:42:17.716Z,0.30
2023-02-06T04:43:17.726Z,0.30
2023-02-06T04:44:17.702Z,0.27
2023-02-06T04:45:17.742Z,0.28
2023-02-06T04:46:17.751Z,0.25
2023-02-06T04:47:17.694Z,0.27
2023-02-06T04:48:17.952Z,0.25
2023-02-06T04:49:17.698Z,0.24
2023-02-06T04:50:17.635Z,0.24
2023-02-06T04:51:17.659Z,0.25
2023-02-06T04:52:17.698Z,0.23
2023-02-06T04:53:17.644Z,0.24
2023-02-06T04:54:17.600Z,0.25
2023-02-06T04:55:17.971Z,0.27
2023-02-06T04:56:17.605Z,0.31
2023-02-06T04:57:17.613Z,0.36
2023-02-06T04:58:17.598Z,0.38
2023-02-06T04:59:17.601Z,0.41
2023-02-06T05:00:17.553Z,0.43
2023-02-06T05:01:17.633Z,0.42
2023-02-06T05:02:17.898Z,0.39
2023-02-06T05:03:17.528Z,0.38
2023-02-06T05:04:17.557Z,0.38
2023-02-06T05:05:17.523Z,0.36
2023-02-06T05:06:17.529Z,0.38
2023-02-06T05:07:17.516Z,0.38
2023-02-06T05:08:17.503Z,0.36
2023-02-06T05:09:17.745Z,0.38
2023-02-06T05:10:17.463Z,0.39
2023-02-06T05:11:17.564Z,0.39
2023-02-06T05:12:17.433Z,0.45
2023-02-06T05:13:17.405Z,0.46
2023-02-06T05:14:17.392Z,0.51
2023-02-06T05:15:17.418Z,0.60
2023-02-06T05:16:17.753Z,0.65
2023-02-06T05:17:17.354Z,0.70
2023-02-06T05:18:17.380Z,0.72
2023-02-06T05:19:17.373Z,0.80
2023-02-06T05:20:17.325Z,0.85
2023-02-06T05:21:17.322Z,0.92
2023-02-06T05:22:18.078Z,0.97
2023-02-06T05:23:17.641Z,1.00
2023-02-06T05:24:17.319Z,1.01
2023-02-06T05:25:17.380Z,1.06
2023-02-06T05:26:17.326Z,1.06
2023-02-06T05:27:17.260Z,1.08
2023-02-06T05:28:17.363Z,1.08
2023-02-06T05:29:17.276Z,1.10
2023-02-06T05:30:17.506Z,1.10
2023-02-06T05:31:17.360Z,1.08
2023-02-06T05:32:17.180Z,1.12
2023-02-06T05:33:17.233Z,1.10
2023-02-06T05:34:17.210Z,1.08
2023-02-06T05:35:17.200Z,1.10
2023-02-06T05:36:17.166Z,1.10
2023-02-06T05:37:17.448Z,1.08
2023-02-06T05:38:17.137Z,1.08
2023-02-06T05:39:17.129Z,1.08
2023-02-06T05:40:17.134Z,1.10
2023-02-06T05:41:17.107Z,1.12
2023-02-06T05:42:17.077Z,1.14
2023-02-06T05:43:17.120Z,1.14
2023-02-06T05:44:17.352Z,1.14
2023-02-06T05:45:17.070Z,1.15
2023-02-06T05:46:17.156Z,1.14
2023-02-06T05:47:17.039Z,1.14
2023-02-06T05:48:17.026Z,1.15
2023-02-06T05:49:17.029Z,1.15
2023-02-06T05:50:17.062Z,1.15
2023-02-06T05:51:17.320Z,1.15
2023-02-06T05:52:17.029Z,1.15
2023-02-06T05:53:16.973Z,1.18
2023-02-06T05:54:16.983Z,1.18
2023-02-06T05:55:16.967Z,1.18
2023-02-06T05:56:16.948Z,1.19
2023-02-06T05:57:16.961Z,1.18
2023-02-06T05:58:17.264Z,1.18
2023-02-06T05:59:16.912Z,1.18
2023-02-06T06:00:16.911Z,1.18
2023-02-06T06:01:16.917Z,1.16
2023-02-06T06:02:16.889Z,1.16
2023-02-06T06:03:16.882Z,1.15
2023-02-06T06:04:16.988Z,1.14
2023-02-06T06:05:17.149Z,1.12
2023-02-06T06:06:16.853Z,1.10
2023-02-06T06:07:16.851Z,1.08
2023-02-06T06:08:16.829Z,1.07
2023-02-06T06:09:16.830Z,1.07
2023-02-06T06:10:16.903Z,1.07
2023-02-06T06:11:16.816Z,1.06
2023-02-06T06:12:16.793Z,1.04
2023-02-06T06:13:16.769Z,1.04
2023-02-06T06:14:16.768Z,1.04
2023-02-06T06:15:16.753Z,1.03
2023-02-06T06:16:16.819Z,1.01
2023-02-06T06:17:16.725Z,0.97
2023-02-06T06:18:17.050Z,0.96
2023-02-06T06:19:16.713Z,0.97
2023-02-06T06:20:16.726Z,0.96
2023-02-06T06:21:16.701Z,0.94
2023-02-06T06:22:16.716Z,0.94
2023-02-06T06:23:16.674Z,0.92
2023-02-06T06:24:16.678Z,0.94
2023-02-06T06:25:16.973Z,0.92
2023-02-06T06:26:16.631Z,0.92
2023-02-06T06:27:16.658Z,0.92
2023-02-06T06:28:16.712Z,0.90
2023-02-06T06:29:16.615Z,0.89
2023-02-06T06:30:16.688Z,0.88
2023-02-06T06:31:17.329Z,0.86
2023-02-06T06:32:16.570Z,0.86
2023-02-06T06:33:16.587Z,0.86
2023-02-06T06:34:16.607Z,0.86
2023-02-06T06:35:16.566Z,0.89
2023-02-06T06:36:16.554Z,0.90
2023-02-06T06:37:16.537Z,0.94
2023-02-06T06:38:16.511Z,0.92
2023-02-06T06:39:16.502Z,0.94
2023-02-06T06:40:16.563Z,0.94
2023-02-06T06:41:16.504Z,0.96
2023-02-06T06:42:16.470Z,0.94
2023-02-06T06:43:16.479Z,0.92
2023-02-06T06:44:16.725Z,0.94
2023-02-06T06:45:16.441Z,0.92
2023-02-06T06:46:16.477Z,0.90
2023-02-06T06:47:16.433Z,0.90
2023-02-06T06:48:16.404Z,0.92
2023-02-06T06:49:16.400Z,0.96
2023-02-06T06:50:16.409Z,0.92
2023-02-06T06:51:16.380Z,0.96
2023-02-06T06:52:24.762Z,0.96
2023-02-06T06:53:16.373Z,0.98
2023-02-06T06:54:16.349Z,0.97
2023-02-06T06:55:16.358Z,0.96
2023-02-06T06:56:16.646Z,0.97
2023-02-06T06:57:16.338Z,0.96
2023-02-06T06:58:16.356Z,0.94
2023-02-06T06:59:16.297Z,0.96
2023-02-06T07:00:16.283Z,0.92
2023-02-06T07:01:16.330Z,0.89
2023-02-06T07:02:16.283Z,0.88
2023-02-06T07:03:16.576Z,0.82
2023-02-06T07:04:16.286Z,0.80
2023-02-06T07:05:16.247Z,0.80
2023-02-06T07:06:16.255Z,0.79
2023-02-06T07:07:16.253Z,0.80
2023-02-06T07:08:16.229Z,0.82
2023-02-06T07:09:16.201Z,0.85
2023-02-06T07:10:16.230Z,0.85
2023-02-06T07:11:16.187Z,0.89
2023-02-06T07:12:16.163Z,0.89
2023-02-06T07:13:16.180Z,0.92
2023-02-06T07:14:16.137Z,0.94
2023-02-06T07:15:16.154Z,0.94
2023-02-06T07:16:16.248Z,0.94
2023-02-06T07:17:16.129Z,0.94
2023-02-06T07:18:16.113Z,0.92
2023-02-06T07:19:16.170Z,0.94
2023-02-06T07:20:16.105Z,0.92
2023-02-06T07:21:16.124Z,0.94
2023-02-06T07:22:16.386Z,0.89
2023-02-06T07:23:16.115Z,0.89
2023-02-06T07:24:16.058Z,0.89
2023-02-06T07:25:16.038Z,0.90
2023-02-06T07:26:16.061Z,0.90
2023-02-06T07:27:16.101Z,0.92
2023-02-06T07:28:16.102Z,0.92
2023-02-06T07:29:16.023Z,0.90
2023-02-06T07:30:16.015Z,0.89
2023-02-06T07:31:16.032Z,0.89
2023-02-06T07:32:15.959Z,0.86
2023-02-06T07:33:15.986Z,0.86
2023-02-06T07:34:15.972Z,0.85
2023-02-06T07:35:16.215Z,0.85
2023-02-06T07:36:15.934Z,0.89
2023-02-06T07:37:15.914Z,0.92
2023-02-06T07:38:15.892Z,0.94
2023-02-06T07:39:15.894Z,0.96
2023-02-06T07:40:15.907Z,0.97
2023-02-06T07:41:15.881Z,1.01
2023-02-06T07:42:15.933Z,1.04
2023-02-06T07:43:15.858Z,1.19
2023-02-06T07:44:15.831Z,1.37
2023-02-06T07:45:15.851Z,1.44
2023-02-06T07:46:15.973Z,1.47
2023-02-06T07:47:16.114Z,1.43
2023-02-06T07:48:15.820Z,1.42
2023-02-06T07:49:15.800Z,1.39
2023-02-06T07:50:15.778Z,1.37
2023-02-06T07:51:15.812Z,1.37
2023-02-06T07:52:15.792Z,1.37
2023-02-06T07:53:15.751Z,1.37
2023-02-06T07:54:15.745Z,1.37
2023-02-06T07:55:15.745Z,1.34
2023-02-06T07:56:15.720Z,1.33
2023-02-06T07:57:16.369Z,1.34
2023-02-06T07:58:15.739Z,1.34
2023-02-06T07:59:15.988Z,1.36
2023-02-06T08:00:15.678Z,1.37
2023-02-06T08:01:15.812Z,1.39
2023-02-06T08:02:15.667Z,1.39
2023-02-06T08:03:15.656Z,1.33
2023-02-06T08:04:15.705Z,1.28
2023-02-06T08:05:15.661Z,1.26
2023-02-06T08:06:15.922Z,1.26
2023-02-06T08:07:15.656Z,1.28
2023-02-06T08:08:15.603Z,1.32
2023-02-06T08:09:15.588Z,1.32
2023-02-06T08:10:15.636Z,1.33
2023-02-06T08:11:15.576Z,1.29
2023-02-06T08:12:15.563Z,1.34
2023-02-06T08:13:15.589Z,1.36
2023-02-06T08:14:15.538Z,1.37
2023-02-06T08:15:15.531Z,1.39
2023-02-06T08:16:15.651Z,1.44
2023-02-06T08:17:15.540Z,1.43
2023-02-06T08:18:15.767Z,1.46
2023-02-06T08:19:15.476Z,1.47
2023-02-06T08:20:15.476Z,1.51
2023-02-06T08:21:15.483Z,1.50
2023-02-06T08:22:15.507Z,1.50
2023-02-06T08:23:15.443Z,1.50
2023-02-06T08:24:15.441Z,1.50
2023-02-06T08:25:15.729Z,1.51
2023-02-06T08:26:15.444Z,1.55
2023-02-06T08:27:15.433Z,1.55
2023-02-06T08:28:15.582Z,1.57
2023-02-06T08:29:15.373Z,1.60
2023-02-06T08:30:15.384Z,1.60
2023-02-06T08:31:15.437Z,1.61
2023-02-06T08:32:15.670Z,1.61
2023-02-06T08:33:15.336Z,1.60
2023-02-06T08:34:15.402Z,1.60
2023-02-06T08:35:15.339Z,1.60
2023-02-06T08:36:15.329Z,1.60
2023-02-06T08:37:15.467Z,1.60
2023-02-06T08:38:15.303Z,1.62
2023-02-06T08:39:15.613Z,1.65
2023-02-06T08:40:15.305Z,1.71
2023-02-06T08:41:15.293Z,1.73
2023-02-06T08:42:15.275Z,1.78
2023-02-06T08:43:15.279Z,1.82
2023-02-06T08:44:15.236Z,1.83
2023-02-06T08:45:15.230Z,1.85
2023-02-06T08:46:15.332Z,1.87
2023-02-06T08:47:15.186Z,1.90
2023-02-06T08:48:15.200Z,1.93
2023-02-06T08:49:15.250Z,1.94
2023-02-06T08:50:15.261Z,1.97
2023-02-06T08:51:15.551Z,1.99
2023-02-06T08:52:15.197Z,2.06
2023-02-06T08:53:15.155Z,2.08
2023-02-06T08:54:15.144Z,2.10
2023-02-06T08:55:15.126Z,2.13
2023-02-06T08:56:15.098Z,2.17
2023-02-06T08:57:15.131Z,2.20
2023-02-06T08:58:15.123Z,2.23
2023-02-06T08:59:15.067Z,2.27
2023-02-06T09:00:15.191Z,2.31
2023-02-06T09:01:15.131Z,2.31
2023-02-06T09:02:15.129Z,2.27
2023-02-06T09:03:15.065Z,2.28
2023-02-06T09:04:15.084Z,2.33
2023-02-06T09:05:15.054Z,2.35
2023-02-06T09:06:15.075Z,2.37
2023-02-06T09:07:17.205Z,2.37
2023-02-06T09:08:15.026Z,2.41
2023-02-06T09:09:15.344Z,2.46
2023-02-06T09:10:26.816Z,2.46
2023-02-06T09:11:14.989Z,2.51
2023-02-06T09:12:14.953Z,2.55
2023-02-06T09:13:14.948Z,2.58
2023-02-06T09:14:14.951Z,2.61
2023-02-06T09:15:15.671Z,2.61
2023-02-06T09:16:15.414Z,2.63
2023-02-06T09:17:14.921Z,2.64
2023-02-06T09:18:14.932Z,2.67
2023-02-06T09:19:14.923Z,2.71
2023-02-06T09:20:14.899Z,2.76
2023-02-06T09:21:14.846Z,2.79
2023-02-06T09:22:14.888Z,2.84
2023-02-06T09:23:15.128Z,2.91
2023-02-06T09:24:14.922Z,2.92
2023-02-06T09:25:14.811Z,2.92
2023-02-06T09:26:14.823Z,2.89
2023-02-06T09:27:14.810Z,2.89
2023-02-06T09:28:14.951Z,2.88
2023-02-06T09:29:14.803Z,2.89
2023-02-06T09:30:15.143Z,2.88
2023-02-06T09:31:14.907Z,2.88
2023-02-06T09:32:14.776Z,2.92
2023-02-06T09:33:14.714Z,2.95
2023-02-06T09:34:14.800Z,2.98
2023-02-06T09:35:14.711Z,3.05
2023-02-06T09:36:14.703Z,3.09
2023-02-06T09:37:14.968Z,3.12
2023-02-06T09:38:14.684Z,3.20
2023-02-06T09:39:14.690Z,3.23
2023-02-06T09:40:14.686Z,3.21
2023-02-06T09:41:14.640Z,3.21
2023-02-06T09:42:14.752Z,3.20
2023-02-06T09:43:14.616Z,3.20
2023-02-06T09:44:14.898Z,3.20
2023-02-06T09:45:14.706Z,3.18
2023-02-06T09:46:14.697Z,3.15
2023-02-06T09:47:14.576Z,3.15
2023-02-06T09:48:14.600Z,3.10
2023-02-06T09:49:14.608Z,3.12
2023-02-06T09:50:14.630Z,3.15
2023-02-06T09:51:14.808Z,3.16
2023-02-06T09:52:14.592Z,3.16
2023-02-06T09:53:14.514Z,3.16
2023-02-06T09:54:14.567Z,3.21
2023-02-06T09:55:14.510Z,3.23
2023-02-06T09:56:14.481Z,3.25
2023-02-06T09:57:14.496Z,3.27
2023-02-06T09:58:14.588Z,3.31
2023-02-06T09:59:14.504Z,3.31
2023-02-06T10:00:14.537Z,3.27
2023-02-06T10:01:14.491Z,3.25
2023-02-06T10:02:14.454Z,3.30
2023-02-06T10:03:14.480Z,3.28
2023-02-06T10:04:15.835Z,3.34
2023-02-06T10:05:14.556Z,3.40
2023-02-06T10:06:14.394Z,3.42
2023-02-06T10:07:14.379Z,3.43
2023-02-06T10:08:14.513Z,3.46
2023-02-06T10:09:14.382Z,3.49
2023-02-06T10:10:14.457Z,3.50
2023-02-06T10:11:14.611Z,3.49
2023-02-06T10:12:14.345Z,3.53
2023-02-06T10:13:14.324Z,3.57
2023-02-06T10:14:14.410Z,3.61
2023-02-06T10:15:14.384Z,3.64
2023-02-06T10:16:14.359Z,3.65
2023-02-06T10:17:14.288Z,3.65
2023-02-06T10:18:14.579Z,3.67
2023-02-06T10:19:14.277Z,3.67
2023-02-06T10:20:14.285Z,3.67
2023-02-06T10:21:14.262Z,3.68
2023-02-06T10:22:14.298Z,3.68
2023-02-06T10:23:14.198Z,3.70
2023-02-06T10:24:14.204Z,3.68
2023-02-06T10:25:14.500Z,3.64
2023-02-06T10:26:14.185Z,3.67
2023-02-06T10:27:14.212Z,3.65
2023-02-06T10:28:14.259Z,3.67
2023-02-06T10:29:16.617Z,3.70
2023-02-06T10:30:14.218Z,3.71
2023-02-06T10:31:14.314Z,3.70
2023-02-06T10:32:14.432Z,3.68
2023-02-06T10:33:24.040Z,3.67
2023-02-06T10:34:14.149Z,3.71
2023-02-06T10:35:14.186Z,3.72
2023-02-06T10:36:14.143Z,3.75
2023-02-06T10:37:14.164Z,3.78
2023-02-06T10:38:14.073Z,3.79
2023-02-06T10:39:14.156Z,3.80
2023-02-06T10:40:14.388Z,3.86
2023-02-06T10:41:14.071Z,3.86
2023-02-06T10:42:14.039Z,3.89
2023-02-06T10:43:14.045Z,3.86
2023-02-06T10:44:14.012Z,3.89
2023-02-06T10:45:20.102Z,3.92
2023-02-06T10:46:14.044Z,3.98
2023-02-06T10:47:13.973Z,4.00
2023-02-06T10:48:13.980Z,4.04
2023-02-06T10:49:13.944Z,4.06
2023-02-06T10:50:14.269Z,4.08
2023-02-06T10:51:13.932Z,4.12
2023-02-06T10:52:13.963Z,4.14
2023-02-06T10:53:13.916Z,4.14
2023-02-06T10:54:13.890Z,4.16
2023-02-06T10:55:13.892Z,4.18
2023-02-06T10:56:13.904Z,4.22
2023-02-06T10:57:13.876Z,4.25
2023-02-06T10:58:13.903Z,4.28
2023-02-06T10:59:13.885Z,4.33
2023-02-06T11:00:14.051Z,4.32
2023-02-06T11:01:24.977Z,4.32
2023-02-06T11:02:13.901Z,4.32
2023-02-06T11:03:13.852Z,4.33
2023-02-06T11:04:13.845Z,4.37
2023-02-06T11:05:13.826Z,4.36
2023-02-06T11:06:13.759Z,4.34
2023-02-06T11:07:13.765Z,4.36
2023-02-06T11:08:14.069Z,4.37
2023-02-06T11:09:13.742Z,4.43
2023-02-06T11:10:13.773Z,4.43
2023-02-06T11:11:13.825Z,4.46
2023-02-06T11:12:13.730Z,4.51
2023-02-06T11:13:13.693Z,4.54
2023-02-06T11:14:13.685Z,4.59
2023-02-06T11:15:13.679Z,4.59
2023-02-06T11:16:13.785Z,4.62
2023-02-06T11:17:13.678Z,4.67
2023-02-06T11:18:13.635Z,4.70
2023-02-06T11:19:13.660Z,4.75
2023-02-06T11:20:13.661Z,4.80
2023-02-06T11:21:13.964Z,4.83
2023-02-06T11:22:13.747Z,4.88
2023-02-06T11:23:13.612Z,4.88
2023-02-06T11:24:13.597Z,4.88
2023-02-06T11:25:13.575Z,4.86
2023-02-06T11:26:13.599Z,4.88
2023-02-06T11:27:13.544Z,4.88
2023-02-06T11:28:13.685Z,4.86
2023-02-06T11:29:13.542Z,4.88
2023-02-06T11:30:13.640Z,4.88
2023-02-06T11:31:13.671Z,4.89
2023-02-06T11:32:14.142Z,4.92
2023-02-06T11:33:13.893Z,4.96
2023-02-06T11:34:13.542Z,4.99
2023-02-06T11:35:15.099Z,5.02
2023-02-06T11:36:14.234Z,5.02
2023-02-06T11:37:13.482Z,5.02
2023-02-06T11:38:13.443Z,5.02
2023-02-06T11:39:13.462Z,5.01
2023-02-06T11:40:13.575Z,4.98
2023-02-06T11:41:14.730Z,5.01
2023-02-06T11:42:13.409Z,5.05
2023-02-06T11:43:13.413Z,5.12
2023-02-06T11:44:13.400Z,5.16
2023-02-06T11:45:13.372Z,5.20
2023-02-06T11:46:13.737Z,5.23
2023-02-06T11:47:13.338Z,5.27
2023-02-06T11:48:13.353Z,5.30
2023-02-06T11:49:13.513Z,5.38
2023-02-06T11:50:13.511Z,5.41
2023-02-06T11:51:13.635Z,5.49
2023-02-06T11:52:13.337Z,5.53
2023-02-06T11:53:13.287Z,5.59
2023-02-06T11:54:13.280Z,5.67
2023-02-06T11:55:13.395Z,5.68
2023-02-06T11:56:13.290Z,5.68
2023-02-06T11:57:13.261Z,5.71
2023-02-06T11:58:13.580Z,5.75
2023-02-06T11:59:13.212Z,5.75
2023-02-06T12:00:13.333Z,5.81
2023-02-06T12:01:13.206Z,5.85
2023-02-06T12:02:13.298Z,5.83
2023-02-06T12:03:13.236Z,5.82
2023-02-06T12:04:13.253Z,5.82
2023-02-06T12:05:13.497Z,5.83
2023-02-06T12:06:13.231Z,5.85
2023-02-06T12:07:13.149Z,5.86
2023-02-06T12:08:13.266Z,5.85
2023-02-06T12:09:13.130Z,5.85
2023-02-06T12:10:13.273Z,5.88
2023-02-06T12:11:13.689Z,5.89
2023-02-06T12:12:13.406Z,5.89
2023-02-06T12:13:13.107Z,5.91
2023-02-06T12:14:13.089Z,5.92
2023-02-06T12:15:36.061Z,5.93
2023-02-06T12:16:13.223Z,5.91
2023-02-06T12:17:13.111Z,5.89
2023-02-06T12:18:13.194Z,5.95
2023-02-06T12:19:13.350Z,6.03
2023-02-06T12:20:13.016Z,6.06
2023-02-06T12:21:12.996Z,6.11
2023-02-06T12:22:13.099Z,6.18
2023-02-06T12:23:13.007Z,6.28
2023-02-06T12:24:12.969Z,6.46
2023-02-06T12:25:12.971Z,6.72
2023-02-06T12:26:13.234Z,6.76
2023-02-06T12:27:12.965Z,6.83
2023-02-06T12:28:13.109Z,6.84
2023-02-06T12:29:13.020Z,6.87
2023-02-06T12:30:12.938Z,6.81
2023-02-06T12:31:13.060Z,6.73
2023-02-06T12:32:12.884Z,6.66
2023-02-06T12:33:13.175Z,6.58
2023-02-06T12:34:12.898Z,6.43
2023-02-06T12:35:12.867Z,6.35
2023-02-06T12:36:12.838Z,6.28
2023-02-06T12:37:12.855Z,6.29
2023-02-06T12:38:12.827Z,6.29
2023-02-06T12:39:12.808Z,6.30
2023-02-06T12:40:13.313Z,6.32
2023-02-06T12:41:12.794Z,6.22
2023-02-06T12:42:12.800Z,6.28
2023-02-06T12:43:12.848Z,6.40
2023-02-06T12:44:12.743Z,6.50
2023-02-06T12:45:12.825Z,6.69
2023-02-06T12:46:13.395Z,6.76
2023-02-06T12:47:13.036Z,6.62
2023-02-06T12:48:12.704Z,6.59
2023-02-06T12:49:12.713Z,6.51
2023-02-06T12:50:12.683Z,6.51
2023-02-06T12:51:12.674Z,6.50
2023-02-06T12:52:12.684Z,6.46
2023-02-06T12:53:12.673Z,6.33
2023-02-06T12:54:12.938Z,6.14
2023-02-06T12:55:13.317Z,6.10
2023-02-06T12:56:12.640Z,6.07
2023-02-06T12:57:12.655Z,6.04
2023-02-06T12:58:12.641Z,6.01
2023-02-06T12:59:12.603Z,6.01
2023-02-06T13:00:12.631Z,6.03
2023-02-06T13:01:25.867Z,6.01
2023-02-06T13:02:12.729Z,6.00
2023-02-06T13:03:12.671Z,5.96
2023-02-06T13:04:12.579Z,5.93
2023-02-06T13:05:12.547Z,5.92
2023-02-06T13:06:12.534Z,5.93
2023-02-06T13:07:12.841Z,5.96
2023-02-06T13:08:12.509Z,5.98
2023-02-06T13:09:12.512Z,5.95
2023-02-06T13:10:12.514Z,5.92
2023-02-06T13:11:12.477Z,5.95
2023-02-06T13:12:12.539Z,5.98
2023-02-06T13:13:12.749Z,5.95
2023-02-06T13:14:12.440Z,5.98
2023-02-06T13:15:12.445Z,6.00
2023-02-06T13:16:12.497Z,6.04
2023-02-06T13:17:12.419Z,6.13
2023-02-06T13:18:12.430Z,6.21